»·PEaware :: N647RG KSMO-KPOC

N647RG :: KSMO-KPOC

FLIGHT INFORMATION

Flight Status: Arrived
Operator: Privately registered:
United States
More flights under this callsign
Pilot: Jerome R. (37648)
Aircraft: BEECH AIRCRAFT BONANZA
(BE36)
More flights by this aircraft type
Origin: KSMO Santa Monica Mun
United States
Destination: KPOC Brackett
United States
More flights between these airports :: More routes between these airports
Route: SMO SMO125 V64 SLI V8 POXKU V363 POM
File this flight plan on PilotEdge
Remarks: TEC route SMOP7
Altitude:
(Current/Filed)
5,000ft
Speed:
(Current/Filed)
169kts
Departed: 04-Aug-23 05:26 PM
Arrived: 04-Aug-23 05:57 PM
Distance/Time
Traveled:
34nm/0:31
Distance/Time
To Go:
Arrived

Flight Plot

Page will automatically refresh every two minutes.

Flight plan parsing failed; only flown route is shown


Map Options




Map Legend


Flown Route
Filed Route
Departure Airport
Arrival Airport
Navaid (VOR, NDB)
Fix

Horizontal Profiles

Position Reports

Time Latitude Longitude Heading Altitude Ground
Speed
04-Aug-23 17:02 34.018230 -118.446967 286 166ft 0kts
04-Aug-23 17:03 34.018231 -118.446967 286 166ft 0kts
04-Aug-23 17:04 34.018231 -118.446967 286 166ft 0kts
04-Aug-23 17:05 34.018230 -118.446967 286 166ft 0kts
04-Aug-23 17:06 34.018231 -118.446967 286 166ft 0kts
04-Aug-23 17:07 34.018231 -118.446967 286 166ft 0kts
04-Aug-23 17:08 34.018230 -118.446967 286 166ft 0kts
04-Aug-23 17:09 34.018230 -118.446967 286 175ft 0kts
04-Aug-23 17:10 34.018230 -118.446967 286 175ft 0kts
04-Aug-23 17:11 34.018230 -118.446967 286 175ft 0kts
04-Aug-23 17:12 34.018230 -118.446967 286 175ft 0kts
04-Aug-23 17:13 34.018230 -118.446967 286 175ft 0kts
04-Aug-23 17:14 34.018230 -118.446967 286 175ft 0kts
04-Aug-23 17:15 34.018230 -118.446967 286 175ft 0kts
04-Aug-23 17:16 34.018231 -118.446967 286 175ft 0kts
04-Aug-23 17:17 34.018231 -118.446967 286 175ft 0kts
04-Aug-23 17:18 34.018231 -118.446967 286 175ft 0kts
04-Aug-23 17:19 34.018230 -118.446967 286 175ft 0kts
04-Aug-23 17:20 34.018230 -118.446967 286 175ft 0kts
04-Aug-23 17:21 34.018230 -118.446967 286 175ft 0kts
04-Aug-23 17:22 34.018809 -118.446645 41 170ft 16kts
04-Aug-23 17:23 34.019919 -118.445509 354 175ft 0kts
04-Aug-23 17:24 34.019943 -118.445511 356 175ft 2kts
04-Aug-23 17:25 34.014914 -118.452595 225 390ft 94kts
04-Aug-23 17:26 34.003437 -118.485507 264 2015ft 115kts
04-Aug-23 17:27 34.000274 -118.521051 265 3720ft 101kts
04-Aug-23 17:28 33.998331 -118.557329 271 4882ft 122kts
04-Aug-23 17:29 34.013073 -118.539252 92 5071ft 156kts
04-Aug-23 17:30 34.012776 -118.484088 88 4947ft 168kts
04-Aug-23 17:31 33.993515 -118.442278 161 4936ft 169kts
04-Aug-23 17:32 33.948605 -118.425119 159 5011ft 170kts
04-Aug-23 17:33 33.903174 -118.406685 160 5004ft 173kts
04-Aug-23 17:34 33.857087 -118.388866 160 4988ft 173kts
04-Aug-23 17:35 33.811022 -118.370866 160 4989ft 174kts
04-Aug-23 17:36 33.765099 -118.352812 160 4995ft 173kts
04-Aug-23 17:37 33.749294 -118.302213 97 4995ft 170kts
04-Aug-23 17:38 33.743091 -118.245461 97 5001ft 173kts
04-Aug-23 17:39 33.736955 -118.187915 97 5000ft 173kts
04-Aug-23 17:40 33.731073 -118.130511 97 4991ft 172kts
04-Aug-23 17:41 33.725425 -118.073359 97 4974ft 173kts
04-Aug-23 17:42 33.719769 -118.015914 97 4965ft 172kts
04-Aug-23 17:43 33.739588 -117.965108 54 4972ft 175kts
04-Aug-23 17:44 33.768593 -117.917991 55 5007ft 175kts
04-Aug-23 17:45 33.797028 -117.870456 55 4987ft 175kts
04-Aug-23 17:46 33.825495 -117.822641 55 4991ft 176kts
04-Aug-23 17:47 33.854926 -117.775667 32 4994ft 177kts
04-Aug-23 17:48 33.903280 -117.771423 14 5020ft 167kts
04-Aug-23 17:49 33.947777 -117.760204 351 3970ft 166kts
04-Aug-23 17:50 33.987984 -117.784334 322 3129ft 153kts
04-Aug-23 17:51 34.024657 -117.803814 352 2593ft 140kts
04-Aug-23 17:52 34.060206 -117.781652 57 2320ft 156kts
04-Aug-23 17:53 34.065486 -117.733461 77 2114ft 135kts
04-Aug-23 17:54 34.089567 -117.747042 281 1400ft 111kts
04-Aug-23 17:55 34.091012 -117.775801 273 1015ft 61kts
04-Aug-23 17:56 34.091045 -117.782212 232 993ft 0kts
04-Aug-23 17:57 34.089824 -117.782903 121 992ft 3kts

Navigation Log

Ident Type
Flight plan parsing failed, navigation log unavailable